sensor_id;sensor_type;location;lat;lon;timestamp;P1;durP1;ratioP1;P2;durP2;ratioP2
17947;SDS011;9099;47.958;11.366;2022-09-30T00:01:23;6.18;;;5.68;;
17947;SDS011;9099;47.958;11.366;2022-09-30T00:03:50;7.25;;;6.65;;
17947;SDS011;9099;47.958;11.366;2022-09-30T00:06:19;7.28;;;6.68;;
17947;SDS011;9099;47.958;11.366;2022-09-30T00:08:46;6.60;;;6.10;;
17947;SDS011;9099;47.958;11.366;2022-09-30T00:11:15;6.30;;;5.78;;
17947;SDS011;9099;47.958;11.366;2022-09-30T00:13:44;6.53;;;5.95;;
17947;SDS011;9099;47.958;11.366;2022-09-30T00:16:13;6.25;;;5.72;;
17947;SDS011;9099;47.958;11.366;2022-09-30T00:18:41;6.28;;;5.80;;
17947;SDS011;9099;47.958;11.366;2022-09-30T00:21:09;6.80;;;6.20;;
17947;SDS011;9099;47.958;11.366;2022-09-30T00:23:38;6.28;;;5.88;;
17947;SDS011;9099;47.958;11.366;2022-09-30T00:26:06;6.60;;;6.10;;
17947;SDS011;9099;47.958;11.366;2022-09-30T00:28:36;6.07;;;5.57;;
17947;SDS011;9099;47.958;11.366;2022-09-30T00:31:04;7.80;;;6.50;;
17947;SDS011;9099;47.958;11.366;2022-09-30T00:33:33;6.57;;;6.07;;
17947;SDS011;9099;47.958;11.366;2022-09-30T00:36:00;6.68;;;6.15;;
17947;SDS011;9099;47.958;11.366;2022-09-30T00:38:27;6.32;;;5.82;;
17947;SDS011;9099;47.958;11.366;2022-09-30T00:40:56;6.18;;;5.70;;
17947;SDS011;9099;47.958;11.366;2022-09-30T00:43:37;6.20;;;5.70;;
17947;SDS011;9099;47.958;11.366;2022-09-30T00:46:08;6.53;;;6.03;;
17947;SDS011;9099;47.958;11.366;2022-09-30T00:48:44;6.20;;;5.70;;
17947;SDS011;9099;47.958;11.366;2022-09-30T00:51:17;6.18;;;5.68;;
17947;SDS011;9099;47.958;11.366;2022-09-30T00:53:50;6.13;;;5.72;;
17947;SDS011;9099;47.958;11.366;2022-09-30T00:56:22;5.38;;;5.03;;
17947;SDS011;9099;47.958;11.366;2022-09-30T00:58:51;5.05;;;4.75;;
17947;SDS011;9099;47.958;11.366;2022-09-30T01:01:21;5.80;;;5.30;;
17947;SDS011;9099;47.958;11.366;2022-09-30T01:03:49;6.10;;;5.70;;
17947;SDS011;9099;47.958;11.366;2022-09-30T01:06:20;6.03;;;5.53;;
17947;SDS011;9099;47.958;11.366;2022-09-30T01:08:48;6.10;;;5.60;;
17947;SDS011;9099;47.958;11.366;2022-09-30T01:11:16;5.85;;;5.45;;
17947;SDS011;9099;47.958;11.366;2022-09-30T01:13:45;6.65;;;6.07;;
17947;SDS011;9099;47.958;11.366;2022-09-30T01:16:18;5.43;;;4.93;;
17947;SDS011;9099;47.958;11.366;2022-09-30T01:19:04;5.07;;;4.78;;
17947;SDS011;9099;47.958;11.366;2022-09-30T01:21:56;5.90;;;5.30;;
17947;SDS011;9099;47.958;11.366;2022-09-30T01:24:37;4.57;;;4.18;;
17947;SDS011;9099;47.958;11.366;2022-09-30T01:27:40;4.43;;;4.13;;
17947;SDS011;9099;47.958;11.366;2022-09-30T01:30:44;3.30;;;3.10;;
17947;SDS011;9099;47.958;11.366;2022-09-30T01:33:24;3.10;;;2.90;;
17947;SDS011;9099;47.958;11.366;2022-09-30T01:36:05;3.78;;;3.47;;
17947;SDS011;9099;47.958;11.366;2022-09-30T01:38:43;3.60;;;3.40;;
17947;SDS011;9099;47.958;11.366;2022-09-30T01:41:18;3.78;;;3.47;;
17947;SDS011;9099;47.958;11.366;2022-09-30T01:43:53;3.83;;;3.40;;
17947;SDS011;9099;47.958;11.366;2022-09-30T01:46:31;3.95;;;3.60;;
17947;SDS011;9099;47.958;11.366;2022-09-30T01:49:04;3.78;;;3.47;;
17947;SDS011;9099;47.958;11.366;2022-09-30T01:51:38;4.07;;;3.78;;
17947;SDS011;9099;47.958;11.366;2022-09-30T01:54:09;3.75;;;3.55;;
17947;SDS011;9099;47.958;11.366;2022-09-30T01:56:42;4.57;;;4.28;;
17947;SDS011;9099;47.958;11.366;2022-09-30T01:59:13;3.97;;;3.78;;
17947;SDS011;9099;47.958;11.366;2022-09-30T02:01:46;4.05;;;3.75;;
17947;SDS011;9099;47.958;11.366;2022-09-30T02:04:19;3.70;;;3.50;;
17947;SDS011;9099;47.958;11.366;2022-09-30T02:06:51;3.85;;;3.60;;
17947;SDS011;9099;47.958;11.366;2022-09-30T02:09:20;4.63;;;4.30;;
17947;SDS011;9099;47.958;11.366;2022-09-30T02:11:50;5.60;;;5.10;;
17947;SDS011;9099;47.958;11.366;2022-09-30T02:14:22;4.28;;;3.97;;
17947;SDS011;9099;47.958;11.366;2022-09-30T02:16:55;4.63;;;4.18;;
17947;SDS011;9099;47.958;11.366;2022-09-30T02:19:28;5.20;;;4.80;;
17947;SDS011;9099;47.958;11.366;2022-09-30T02:22:01;4.60;;;4.30;;
17947;SDS011;9099;47.958;11.366;2022-09-30T02:24:33;4.88;;;4.47;;
17947;SDS011;9099;47.958;11.366;2022-09-30T02:27:02;4.55;;;4.25;;
17947;SDS011;9099;47.958;11.366;2022-09-30T02:29:35;4.70;;;4.40;;
17947;SDS011;9099;47.958;11.366;2022-09-30T02:32:08;4.03;;;3.80;;
17947;SDS011;9099;47.958;11.366;2022-09-30T02:34:39;5.93;;;5.53;;
17947;SDS011;9099;47.958;11.366;2022-09-30T02:37:10;5.05;;;4.68;;
17947;SDS011;9099;47.958;11.366;2022-09-30T02:39:42;4.70;;;4.40;;
17947;SDS011;9099;47.958;11.366;2022-09-30T02:42:14;4.60;;;4.30;;
17947;SDS011;9099;47.958;11.366;2022-09-30T02:44:44;4.10;;;3.90;;
17947;SDS011;9099;47.958;11.366;2022-09-30T02:47:13;4.57;;;4.28;;
17947;SDS011;9099;47.958;11.366;2022-09-30T02:49:47;4.22;;;3.92;;
17947;SDS011;9099;47.958;11.366;2022-09-30T02:52:21;5.68;;;5.20;;
17947;SDS011;9099;47.958;11.366;2022-09-30T02:54:57;5.30;;;4.90;;
17947;SDS011;9099;47.958;11.366;2022-09-30T02:57:34;5.55;;;5.15;;
17947;SDS011;9099;47.958;11.366;2022-09-30T03:00:07;5.40;;;5.00;;
17947;SDS011;9099;47.958;11.366;2022-09-30T03:02:36;4.70;;;4.35;;
17947;SDS011;9099;47.958;11.366;2022-09-30T03:05:04;5.13;;;4.82;;
17947;SDS011;9099;47.958;11.366;2022-09-30T03:07:32;5.07;;;4.68;;
17947;SDS011;9099;47.958;11.366;2022-09-30T03:09:59;5.03;;;4.72;;
17947;SDS011;9099;47.958;11.366;2022-09-30T03:12:30;5.80;;;5.40;;
17947;SDS011;9099;47.958;11.366;2022-09-30T03:15:05;4.93;;;4.60;;
17947;SDS011;9099;47.958;11.366;2022-09-30T03:17:53;5.55;;;5.05;;
17947;SDS011;9099;47.958;11.366;2022-09-30T03:20:34;5.85;;;5.10;;
17947;SDS011;9099;47.958;11.366;2022-09-30T03:23:13;5.68;;;5.25;;
17947;SDS011;9099;47.958;11.366;2022-09-30T03:25:52;4.40;;;4.10;;
17947;SDS011;9099;47.958;11.366;2022-09-30T03:28:26;4.85;;;4.50;;
17947;SDS011;9099;47.958;11.366;2022-09-30T03:30:58;4.18;;;3.88;;
17947;SDS011;9099;47.958;11.366;2022-09-30T03:33:32;4.32;;;4.10;;
17947;SDS011;9099;47.958;11.366;2022-09-30T03:36:07;4.03;;;3.75;;
17947;SDS011;9099;47.958;11.366;2022-09-30T03:38:40;5.22;;;4.80;;
17947;SDS011;9099;47.958;11.366;2022-09-30T03:41:15;3.72;;;3.53;;
17947;SDS011;9099;47.958;11.366;2022-09-30T03:43:46;3.60;;;3.40;;
17947;SDS011;9099;47.958;11.366;2022-09-30T03:46:17;4.10;;;3.80;;
17947;SDS011;9099;47.958;11.366;2022-09-30T03:48:51;4.05;;;3.75;;
17947;SDS011;9099;47.958;11.366;2022-09-30T03:51:21;4.75;;;4.35;;
17947;SDS011;9099;47.958;11.366;2022-09-30T03:53:49;4.05;;;3.75;;
17947;SDS011;9099;47.958;11.366;2022-09-30T03:56:23;4.95;;;4.47;;
17947;SDS011;9099;47.958;11.366;2022-09-30T03:58:50;8.00;;;4.60;;
17947;SDS011;9099;47.958;11.366;2022-09-30T04:01:17;7.15;;;3.13;;
17947;SDS011;9099;47.958;11.366;2022-09-30T04:03:45;2.83;;;2.63;;
17947;SDS011;9099;47.958;11.366;2022-09-30T04:06:13;3.65;;;2.78;;
17947;SDS011;9099;47.958;11.366;2022-09-30T04:08:40;11.05;;;3.03;;
17947;SDS011;9099;47.958;11.366;2022-09-30T04:11:07;10.95;;;2.10;;
17947;SDS011;9099;47.958;11.366;2022-09-30T04:13:34;2.20;;;2.10;;
17947;SDS011;9099;47.958;11.366;2022-09-30T04:16:01;2.22;;;2.13;;
17947;SDS011;9099;47.958;11.366;2022-09-30T04:18:28;8.20;;;2.88;;
17947;SDS011;9099;47.958;11.366;2022-09-30T04:20:55;6.78;;;3.42;;
17947;SDS011;9099;47.958;11.366;2022-09-30T04:23:24;5.13;;;3.30;;
17947;SDS011;9099;47.958;11.366;2022-09-30T04:25:51;3.10;;;2.90;;
17947;SDS011;9099;47.958;11.366;2022-09-30T04:28:18;3.63;;;3.03;;
17947;SDS011;9099;47.958;11.366;2022-09-30T04:30:45;3.13;;;2.67;;
17947;SDS011;9099;47.958;11.366;2022-09-30T04:33:12;17.00;;;3.70;;
17947;SDS011;9099;47.958;11.366;2022-09-30T04:35:39;2.78;;;2.58;;
17947;SDS011;9099;47.958;11.366;2022-09-30T04:38:06;3.67;;;2.83;;
17947;SDS011;9099;47.958;11.366;2022-09-30T04:40:36;3.17;;;2.97;;
17947;SDS011;9099;47.958;11.366;2022-09-30T04:43:03;4.80;;;3.13;;
17947;SDS011;9099;47.958;11.366;2022-09-30T04:45:30;3.30;;;3.10;;
17947;SDS011;9099;47.958;11.366;2022-09-30T04:47:57;4.35;;;3.97;;
17947;SDS011;9099;47.958;11.366;2022-09-30T04:50:24;3.80;;;3.50;;
17947;SDS011;9099;47.958;11.366;2022-09-30T04:52:50;4.38;;;4.07;;
17947;SDS011;9099;47.958;11.366;2022-09-30T04:55:19;4.85;;;4.55;;
17947;SDS011;9099;47.958;11.366;2022-09-30T04:57:48;4.40;;;4.10;;
17947;SDS011;9099;47.958;11.366;2022-09-30T05:00:15;5.25;;;4.63;;
17947;SDS011;9099;47.958;11.366;2022-09-30T05:02:43;3.88;;;3.58;;
17947;SDS011;9099;47.958;11.366;2022-09-30T05:05:09;4.00;;;3.70;;
17947;SDS011;9099;47.958;11.366;2022-09-30T05:07:36;4.18;;;3.88;;
17947;SDS011;9099;47.958;11.366;2022-09-30T05:10:04;3.92;;;3.60;;
17947;SDS011;9099;47.958;11.366;2022-09-30T05:12:32;3.50;;;3.30;;
17947;SDS011;9099;47.958;11.366;2022-09-30T05:15:00;3.45;;;3.25;;
17947;SDS011;9099;47.958;11.366;2022-09-30T05:17:28;4.57;;;4.13;;
17947;SDS011;9099;47.958;11.366;2022-09-30T05:19:55;5.20;;;4.70;;
17947;SDS011;9099;47.958;11.366;2022-09-30T05:22:22;6.88;;;5.45;;
17947;SDS011;9099;47.958;11.366;2022-09-30T05:24:49;7.93;;;6.18;;
17947;SDS011;9099;47.958;11.366;2022-09-30T05:27:16;11.30;;;7.65;;
17947;SDS011;9099;47.958;11.366;2022-09-30T05:29:44;13.50;;;8.15;;
17947;SDS011;9099;47.958;11.366;2022-09-30T05:32:12;16.98;;;8.85;;
17947;SDS011;9099;47.958;11.366;2022-09-30T05:34:39;11.63;;;7.55;;
17947;SDS011;9099;47.958;11.366;2022-09-30T05:37:06;8.27;;;5.78;;
17947;SDS011;9099;47.958;11.366;2022-09-30T05:39:33;8.73;;;5.18;;
17947;SDS011;9099;47.958;11.366;2022-09-30T05:42:00;7.00;;;4.50;;
17947;SDS011;9099;47.958;11.366;2022-09-30T05:44:27;10.52;;;6.28;;
17947;SDS011;9099;47.958;11.366;2022-09-30T05:46:54;6.00;;;5.40;;
17947;SDS011;9099;47.958;11.366;2022-09-30T05:49:23;5.20;;;4.80;;
17947;SDS011;9099;47.958;11.366;2022-09-30T05:51:50;4.20;;;3.90;;
17947;SDS011;9099;47.958;11.366;2022-09-30T05:54:17;4.53;;;4.13;;
17947;SDS011;9099;47.958;11.366;2022-09-30T05:56:44;4.55;;;4.25;;
17947;SDS011;9099;47.958;11.366;2022-09-30T05:59:11;4.03;;;3.83;;
17947;SDS011;9099;47.958;11.366;2022-09-30T06:01:37;4.75;;;4.45;;
17947;SDS011;9099;47.958;11.366;2022-09-30T06:04:04;5.43;;;5.03;;
17947;SDS011;9099;47.958;11.366;2022-09-30T06:06:32;4.03;;;3.83;;
17947;SDS011;9099;47.958;11.366;2022-09-30T06:08:59;4.80;;;4.50;;
17947;SDS011;9099;47.958;11.366;2022-09-30T06:11:26;4.80;;;4.50;;
17947;SDS011;9099;47.958;11.366;2022-09-30T06:13:53;4.70;;;4.45;;
17947;SDS011;9099;47.958;11.366;2022-09-30T06:16:21;4.85;;;4.55;;
17947;SDS011;9099;47.958;11.366;2022-09-30T06:18:48;4.72;;;4.43;;
17947;SDS011;9099;47.958;11.366;2022-09-30T06:21:15;4.53;;;4.22;;
17947;SDS011;9099;47.958;11.366;2022-09-30T06:23:44;4.65;;;4.35;;
17947;SDS011;9099;47.958;11.366;2022-09-30T06:26:11;4.97;;;4.68;;
17947;SDS011;9099;47.958;11.366;2022-09-30T06:28:39;4.93;;;4.63;;
17947;SDS011;9099;47.958;11.366;2022-09-30T06:31:07;4.40;;;4.15;;
17947;SDS011;9099;47.958;11.366;2022-09-30T06:33:35;4.75;;;4.45;;
17947;SDS011;9099;47.958;11.366;2022-09-30T06:36:02;4.00;;;3.80;;
17947;SDS011;9099;47.958;11.366;2022-09-30T06:38:30;3.85;;;3.55;;
17947;SDS011;9099;47.958;11.366;2022-09-30T06:40:59;3.00;;;2.90;;
17947;SDS011;9099;47.958;11.366;2022-09-30T06:43:26;3.65;;;3.35;;
17947;SDS011;9099;47.958;11.366;2022-09-30T06:45:53;3.10;;;3.00;;
17947;SDS011;9099;47.958;11.366;2022-09-30T06:48:20;3.60;;;3.40;;
17947;SDS011;9099;47.958;11.366;2022-09-30T06:50:47;3.92;;;2.97;;
17947;SDS011;9099;47.958;11.366;2022-09-30T06:53:17;3.42;;;3.22;;
17947;SDS011;9099;47.958;11.366;2022-09-30T06:55:44;3.08;;;2.97;;
17947;SDS011;9099;47.958;11.366;2022-09-30T06:58:13;2.70;;;2.60;;
17947;SDS011;9099;47.958;11.366;2022-09-30T07:00:41;2.78;;;2.67;;
17947;SDS011;9099;47.958;11.366;2022-09-30T07:03:08;3.17;;;3.08;;
17947;SDS011;9099;47.958;11.366;2022-09-30T07:05:53;3.45;;;3.25;;
17947;SDS011;9099;47.958;11.366;2022-09-30T07:08:22;3.42;;;3.00;;
17947;SDS011;9099;47.958;11.366;2022-09-30T07:10:50;3.35;;;2.63;;
17947;SDS011;9099;47.958;11.366;2022-09-30T07:13:19;2.63;;;2.53;;
17947;SDS011;9099;47.958;11.366;2022-09-30T07:15:45;2.70;;;2.60;;
17947;SDS011;9099;47.958;11.366;2022-09-30T07:18:13;2.28;;;2.17;;
17947;SDS011;9099;47.958;11.366;2022-09-30T07:20:46;1.88;;;1.77;;
17947;SDS011;9099;47.958;11.366;2022-09-30T07:23:13;1.80;;;1.70;;
17947;SDS011;9099;47.958;11.366;2022-09-30T07:25:47;2.03;;;1.92;;
17947;SDS011;9099;47.958;11.366;2022-09-30T07:28:15;1.77;;;1.67;;
17947;SDS011;9099;47.958;11.366;2022-09-30T07:30:43;1.88;;;1.77;;
17947;SDS011;9099;47.958;11.366;2022-09-30T07:33:11;1.50;;;1.40;;
17947;SDS011;9099;47.958;11.366;2022-09-30T07:35:41;1.48;;;1.42;;
17947;SDS011;9099;47.958;11.366;2022-09-30T07:38:15;1.17;;;1.15;;
17947;SDS011;9099;47.958;11.366;2022-09-30T07:40:49;1.65;;;1.55;;
17947;SDS011;9099;47.958;11.366;2022-09-30T07:43:18;1.23;;;1.20;;
17947;SDS011;9099;47.958;11.366;2022-09-30T07:45:46;0.73;;;0.73;;
17947;SDS011;9099;47.958;11.366;2022-09-30T07:48:14;1.02;;;1.02;;
17947;SDS011;9099;47.958;11.366;2022-09-30T07:50:55;1.00;;;1.00;;
17947;SDS011;9099;47.958;11.366;2022-09-30T07:53:22;1.08;;;1.08;;
17947;SDS011;9099;47.958;11.366;2022-09-30T07:55:49;1.27;;;1.10;;
17947;SDS011;9099;47.958;11.366;2022-09-30T07:58:15;0.93;;;0.93;;
17947;SDS011;9099;47.958;11.366;2022-09-30T08:00:42;1.58;;;1.55;;
17947;SDS011;9099;47.958;11.366;2022-09-30T08:03:14;1.20;;;1.20;;
17947;SDS011;9099;47.958;11.366;2022-09-30T08:05:41;1.33;;;1.23;;
17947;SDS011;9099;47.958;11.366;2022-09-30T08:08:09;1.15;;;1.15;;
17947;SDS011;9099;47.958;11.366;2022-09-30T08:10:36;1.20;;;1.20;;
17947;SDS011;9099;47.958;11.366;2022-09-30T08:13:03;0.93;;;0.93;;
17947;SDS011;9099;47.958;11.366;2022-09-30T08:15:30;1.02;;;1.02;;
17947;SDS011;9099;47.958;11.366;2022-09-30T08:17:57;1.00;;;1.00;;
17947;SDS011;9099;47.958;11.366;2022-09-30T08:20:25;0.75;;;0.75;;
17947;SDS011;9099;47.958;11.366;2022-09-30T08:22:52;1.05;;;0.57;;
17947;SDS011;9099;47.958;11.366;2022-09-30T08:25:19;0.70;;;0.70;;
17947;SDS011;9099;47.958;11.366;2022-09-30T08:27:47;0.65;;;0.60;;
17947;SDS011;9099;47.958;11.366;2022-09-30T08:30:14;0.65;;;0.65;;
17947;SDS011;9099;47.958;11.366;2022-09-30T08:32:41;0.70;;;0.70;;
17947;SDS011;9099;47.958;11.366;2022-09-30T08:35:08;0.88;;;0.70;;
17947;SDS011;9099;47.958;11.366;2022-09-30T08:37:36;0.75;;;0.75;;
17947;SDS011;9099;47.958;11.366;2022-09-30T08:40:03;2.40;;;0.70;;
17947;SDS011;9099;47.958;11.366;2022-09-30T08:42:33;0.70;;;0.70;;
17947;SDS011;9099;47.958;11.366;2022-09-30T08:45:19;0.60;;;0.60;;
17947;SDS011;9099;47.958;11.366;2022-09-30T08:47:53;0.90;;;0.90;;
17947;SDS011;9099;47.958;11.366;2022-09-30T08:50:29;1.55;;;1.00;;
17947;SDS011;9099;47.958;11.366;2022-09-30T08:53:02;0.70;;;0.70;;
17947;SDS011;9099;47.958;11.366;2022-09-30T08:55:32;0.85;;;0.80;;
17947;SDS011;9099;47.958;11.366;2022-09-30T08:58:04;0.80;;;0.80;;
17947;SDS011;9099;47.958;11.366;2022-09-30T09:00:39;0.50;;;0.50;;
17947;SDS011;9099;47.958;11.366;2022-09-30T09:03:08;0.70;;;0.70;;
17947;SDS011;9099;47.958;11.366;2022-09-30T09:05:40;1.52;;;0.90;;
17947;SDS011;9099;47.958;11.366;2022-09-30T09:08:19;0.80;;;0.80;;
17947;SDS011;9099;47.958;11.366;2022-09-30T09:10:54;1.38;;;0.60;;
17947;SDS011;9099;47.958;11.366;2022-09-30T09:13:32;0.95;;;0.80;;
17947;SDS011;9099;47.958;11.366;2022-09-30T09:16:07;1.73;;;0.70;;
17947;SDS011;9099;47.958;11.366;2022-09-30T09:18:41;0.50;;;0.50;;
17947;SDS011;9099;47.958;11.366;2022-09-30T09:21:19;0.60;;;0.60;;
17947;SDS011;9099;47.958;11.366;2022-09-30T09:23:49;0.50;;;0.50;;
17947;SDS011;9099;47.958;11.366;2022-09-30T09:26:18;0.77;;;0.77;;
17947;SDS011;9099;47.958;11.366;2022-09-30T09:28:48;1.35;;;0.63;;
17947;SDS011;9099;47.958;11.366;2022-09-30T09:31:25;0.90;;;0.90;;
17947;SDS011;9099;47.958;11.366;2022-09-30T09:33:52;2.60;;;1.17;;
17947;SDS011;9099;47.958;11.366;2022-09-30T09:36:29;1.13;;;0.88;;
17947;SDS011;9099;47.958;11.366;2022-09-30T09:39:08;1.23;;;1.17;;
17947;SDS011;9099;47.958;11.366;2022-09-30T09:41:47;1.20;;;1.10;;
17947;SDS011;9099;47.958;11.366;2022-09-30T09:44:22;1.70;;;1.60;;
17947;SDS011;9099;47.958;11.366;2022-09-30T09:46:58;2.63;;;2.42;;
17947;SDS011;9099;47.958;11.366;2022-09-30T09:49:33;2.50;;;2.33;;
17947;SDS011;9099;47.958;11.366;2022-09-30T09:55:06;2.30;;;2.20;;
17947;SDS011;9099;47.958;11.366;2022-09-30T09:57:34;2.30;;;2.20;;
17947;SDS011;9099;47.958;11.366;2022-09-30T10:00:02;2.20;;;2.10;;
17947;SDS011;9099;47.958;11.366;2022-09-30T10:02:44;2.10;;;2.00;;
17947;SDS011;9099;47.958;11.366;2022-09-30T10:05:25;1.33;;;1.33;;
17947;SDS011;9099;47.958;11.366;2022-09-30T10:08:07;2.65;;;1.50;;
17947;SDS011;9099;47.958;11.366;2022-09-30T10:10:42;1.60;;;1.50;;
17947;SDS011;9099;47.958;11.366;2022-09-30T10:13:13;1.52;;;1.50;;
17947;SDS011;9099;47.958;11.366;2022-09-30T10:15:42;1.58;;;1.50;;
17947;SDS011;9099;47.958;11.366;2022-09-30T10:18:15;1.45;;;1.45;;
17947;SDS011;9099;47.958;11.366;2022-09-30T10:20:48;1.50;;;1.42;;
17947;SDS011;9099;47.958;11.366;2022-09-30T10:23:18;2.35;;;1.75;;
17947;SDS011;9099;47.958;11.366;2022-09-30T10:25:54;1.85;;;1.75;;
17947;SDS011;9099;47.958;11.366;2022-09-30T10:28:28;1.63;;;1.52;;
17947;SDS011;9099;47.958;11.366;2022-09-30T10:31:03;1.38;;;1.30;;
17947;SDS011;9099;47.958;11.366;2022-09-30T10:33:35;1.60;;;1.58;;
17947;SDS011;9099;47.958;11.366;2022-09-30T10:36:13;1.70;;;1.60;;
17947;SDS011;9099;47.958;11.366;2022-09-30T10:38:46;1.77;;;1.67;;
17947;SDS011;9099;47.958;11.366;2022-09-30T10:41:23;2.85;;;1.80;;
17947;SDS011;9099;47.958;11.366;2022-09-30T10:43:53;1.90;;;1.80;;
17947;SDS011;9099;47.958;11.366;2022-09-30T10:46:25;1.80;;;1.70;;
17947;SDS011;9099;47.958;11.366;2022-09-30T10:48:55;1.80;;;1.70;;
17947;SDS011;9099;47.958;11.366;2022-09-30T10:51:28;2.00;;;1.90;;
17947;SDS011;9099;47.958;11.366;2022-09-30T10:54:00;1.80;;;1.70;;
17947;SDS011;9099;47.958;11.366;2022-09-30T10:56:32;1.65;;;1.55;;
17947;SDS011;9099;47.958;11.366;2022-09-30T10:59:05;1.88;;;1.77;;
17947;SDS011;9099;47.958;11.366;2022-09-30T11:01:42;2.00;;;1.73;;
17947;SDS011;9099;47.958;11.366;2022-09-30T11:04:14;1.67;;;1.60;;
17947;SDS011;9099;47.958;11.366;2022-09-30T11:06:47;1.70;;;1.60;;
17947;SDS011;9099;47.958;11.366;2022-09-30T11:09:17;1.73;;;1.63;;
17947;SDS011;9099;47.958;11.366;2022-09-30T11:11:54;1.80;;;1.67;;
17947;SDS011;9099;47.958;11.366;2022-09-30T11:14:28;1.75;;;1.63;;
17947;SDS011;9099;47.958;11.366;2022-09-30T11:17:04;2.17;;;1.90;;
17947;SDS011;9099;47.958;11.366;2022-09-30T11:19:38;1.83;;;1.73;;
17947;SDS011;9099;47.958;11.366;2022-09-30T11:22:21;1.65;;;1.55;;
17947;SDS011;9099;47.958;11.366;2022-09-30T11:24:58;1.30;;;1.30;;
17947;SDS011;9099;47.958;11.366;2022-09-30T11:27:30;1.42;;;1.30;;
17947;SDS011;9099;47.958;11.366;2022-09-30T11:30:08;1.90;;;1.80;;
17947;SDS011;9099;47.958;11.366;2022-09-30T11:32:41;1.83;;;1.67;;
17947;SDS011;9099;47.958;11.366;2022-09-30T11:35:24;3.13;;;1.60;;
17947;SDS011;9099;47.958;11.366;2022-09-30T11:38:06;1.70;;;1.60;;
17947;SDS011;9099;47.958;11.366;2022-09-30T11:40:41;1.58;;;1.48;;
17947;SDS011;9099;47.958;11.366;2022-09-30T11:43:21;1.50;;;1.40;;
17947;SDS011;9099;47.958;11.366;2022-09-30T11:46:05;1.90;;;1.80;;
17947;SDS011;9099;47.958;11.366;2022-09-30T11:48:55;4.00;;;1.63;;
17947;SDS011;9099;47.958;11.366;2022-09-30T11:51:34;1.70;;;1.60;;
17947;SDS011;9099;47.958;11.366;2022-09-30T11:54:11;2.17;;;2.08;;
17947;SDS011;9099;47.958;11.366;2022-09-30T11:56:48;1.50;;;1.40;;
17947;SDS011;9099;47.958;11.366;2022-09-30T11:59:23;1.70;;;1.60;;
17947;SDS011;9099;47.958;11.366;2022-09-30T12:01:53;1.60;;;1.50;;
17947;SDS011;9099;47.958;11.366;2022-09-30T12:04:25;1.70;;;1.60;;
17947;SDS011;9099;47.958;11.366;2022-09-30T12:06:57;2.30;;;1.52;;
17947;SDS011;9099;47.958;11.366;2022-09-30T12:09:29;2.17;;;1.98;;
17947;SDS011;9099;47.958;11.366;2022-09-30T12:12:02;1.80;;;1.70;;
17947;SDS011;9099;47.958;11.366;2022-09-30T12:14:33;2.10;;;2.00;;
17947;SDS011;9099;47.958;11.366;2022-09-30T12:17:06;1.60;;;1.50;;
17947;SDS011;9099;47.958;11.366;2022-09-30T12:19:46;1.45;;;1.35;;
17947;SDS011;9099;47.958;11.366;2022-09-30T12:22:15;1.33;;;1.33;;
17947;SDS011;9099;47.958;11.366;2022-09-30T12:24:45;1.27;;;1.27;;
17947;SDS011;9099;47.958;11.366;2022-09-30T12:27:14;1.20;;;1.10;;
17947;SDS011;9099;47.958;11.366;2022-09-30T12:29:47;1.02;;;1.02;;
17947;SDS011;9099;47.958;11.366;2022-09-30T12:35:36;1.77;;;1.25;;
17947;SDS011;9099;47.958;11.366;2022-09-30T12:38:38;1.00;;;1.00;;
17947;SDS011;9099;47.958;11.366;2022-09-30T12:41:25;1.40;;;0.98;;
17947;SDS011;9099;47.958;11.366;2022-09-30T12:47:14;0.85;;;0.85;;
17947;SDS011;9099;47.958;11.366;2022-09-30T12:49:47;1.38;;;1.20;;
17947;SDS011;9099;47.958;11.366;2022-09-30T12:52:16;1.95;;;0.98;;
17947;SDS011;9099;47.958;11.366;2022-09-30T12:54:46;1.20;;;0.93;;
17947;SDS011;9099;47.958;11.366;2022-09-30T12:57:18;0.75;;;0.75;;
17947;SDS011;9099;47.958;11.366;2022-09-30T12:59:51;0.75;;;0.75;;
17947;SDS011;9099;47.958;11.366;2022-09-30T13:02:26;1.40;;;0.80;;
17947;SDS011;9099;47.958;11.366;2022-09-30T13:08:21;2.20;;;0.93;;
17947;SDS011;9099;47.958;11.366;2022-09-30T13:10:55;1.02;;;1.00;;
17947;SDS011;9099;47.958;11.366;2022-09-30T13:13:23;0.82;;;0.82;;
17947;SDS011;9099;47.958;11.366;2022-09-30T13:15:53;0.63;;;0.63;;
17947;SDS011;9099;47.958;11.366;2022-09-30T13:21:26;0.95;;;0.95;;
17947;SDS011;9099;47.958;11.366;2022-09-30T13:23:54;0.70;;;0.70;;
17947;SDS011;9099;47.958;11.366;2022-09-30T13:26:31;0.80;;;0.80;;
17947;SDS011;9099;47.958;11.366;2022-09-30T13:32:01;0.80;;;0.80;;
17947;SDS011;9099;47.958;11.366;2022-09-30T13:34:46;0.85;;;0.85;;
17947;SDS011;9099;47.958;11.366;2022-09-30T13:40:16;1.30;;;0.80;;
17947;SDS011;9099;47.958;11.366;2022-09-30T13:42:49;0.77;;;0.77;;
17947;SDS011;9099;47.958;11.366;2022-09-30T13:45:20;0.73;;;0.73;;
17947;SDS011;9099;47.958;11.366;2022-09-30T13:47:56;0.60;;;0.60;;
17947;SDS011;9099;47.958;11.366;2022-09-30T13:50:37;1.45;;;1.00;;
17947;SDS011;9099;47.958;11.366;2022-09-30T13:53:14;1.55;;;0.73;;
17947;SDS011;9099;47.958;11.366;2022-09-30T13:55:47;0.80;;;0.80;;
17947;SDS011;9099;47.958;11.366;2022-09-30T13:58:25;1.30;;;0.80;;
17947;SDS011;9099;47.958;11.366;2022-09-30T14:01:06;1.35;;;0.82;;
17947;SDS011;9099;47.958;11.366;2022-09-30T14:03:57;1.00;;;0.80;;
17947;SDS011;9099;47.958;11.366;2022-09-30T14:06:39;0.90;;;0.90;;
17947;SDS011;9099;47.958;11.366;2022-09-30T14:09:26;0.90;;;0.90;;
17947;SDS011;9099;47.958;11.366;2022-09-30T14:12:16;0.70;;;0.70;;
17947;SDS011;9099;47.958;11.366;2022-09-30T14:15:02;0.70;;;0.70;;
17947;SDS011;9099;47.958;11.366;2022-09-30T14:17:48;1.75;;;0.85;;
17947;SDS011;9099;47.958;11.366;2022-09-30T14:23:24;0.63;;;0.50;;
17947;SDS011;9099;47.958;11.366;2022-09-30T14:25:53;0.50;;;0.50;;
17947;SDS011;9099;47.958;11.366;2022-09-30T14:28:29;0.73;;;0.73;;
17947;SDS011;9099;47.958;11.366;2022-09-30T14:31:00;0.60;;;0.60;;
17947;SDS011;9099;47.958;11.366;2022-09-30T14:33:34;0.80;;;0.80;;
17947;SDS011;9099;47.958;11.366;2022-09-30T14:36:05;2.70;;;1.20;;
17947;SDS011;9099;47.958;11.366;2022-09-30T14:38:38;0.95;;;0.95;;
17947;SDS011;9099;47.958;11.366;2022-09-30T14:41:12;0.85;;;0.85;;
17947;SDS011;9099;47.958;11.366;2022-09-30T14:43:42;0.90;;;0.90;;
17947;SDS011;9099;47.958;11.366;2022-09-30T14:46:13;0.60;;;0.60;;
17947;SDS011;9099;47.958;11.366;2022-09-30T14:48:49;1.15;;;1.10;;
17947;SDS011;9099;47.958;11.366;2022-09-30T14:51:17;0.90;;;0.90;;
17947;SDS011;9099;47.958;11.366;2022-09-30T14:53:52;1.10;;;1.00;;
17947;SDS011;9099;47.958;11.366;2022-09-30T14:56:21;1.13;;;1.00;;
17947;SDS011;9099;47.958;11.366;2022-09-30T14:58:51;1.17;;;0.80;;
17947;SDS011;9099;47.958;11.366;2022-09-30T15:01:21;0.98;;;0.90;;
17947;SDS011;9099;47.958;11.366;2022-09-30T15:03:50;0.90;;;0.90;;
17947;SDS011;9099;47.958;11.366;2022-09-30T15:06:20;1.45;;;0.88;;
17947;SDS011;9099;47.958;11.366;2022-09-30T15:08:49;1.42;;;0.90;;
17947;SDS011;9099;47.958;11.366;2022-09-30T15:11:25;1.52;;;1.17;;
17947;SDS011;9099;47.958;11.366;2022-09-30T15:13:55;1.52;;;1.30;;
17947;SDS011;9099;47.958;11.366;2022-09-30T15:16:25;1.17;;;1.17;;
17947;SDS011;9099;47.958;11.366;2022-09-30T15:18:54;1.17;;;1.08;;
17947;SDS011;9099;47.958;11.366;2022-09-30T15:21:22;1.30;;;1.20;;
17947;SDS011;9099;47.958;11.366;2022-09-30T15:23:53;1.50;;;1.40;;
17947;SDS011;9099;47.958;11.366;2022-09-30T15:26:22;0.90;;;0.90;;
17947;SDS011;9099;47.958;11.366;2022-09-30T15:28:51;1.10;;;1.10;;
17947;SDS011;9099;47.958;11.366;2022-09-30T15:31:22;1.52;;;1.50;;
17947;SDS011;9099;47.958;11.366;2022-09-30T15:34:00;1.80;;;1.42;;
17947;SDS011;9099;47.958;11.366;2022-09-30T15:36:30;1.52;;;1.25;;
17947;SDS011;9099;47.958;11.366;2022-09-30T15:39:00;1.40;;;1.30;;
17947;SDS011;9099;47.958;11.366;2022-09-30T15:41:28;3.05;;;1.20;;